Terminal Aerodrome Forecast
Issued by NWS

Home | Current Version | Previous Version | Text Only | Print | Product List | Glossary On
Versions: 1 2 3 4 5 6 7 8 9 10 11 12 13 14 15
000
FTUS45 KGJT 240540
TAFCNY
TAF
KCNY 240540Z 2406/2506 VRB03KT P6SM SCT120 BKN250
     FM242100 24010KT P6SM VCTS BKN100CB OVC150
     FM250100 16010KT P6SM VCTS BKN080CB OVC100=

USA.gov is the U.S. government's official web portal to all federal, state and local government web resources and services.